Time;durP1;ratioP1;P1;durP2;ratioP2;P2;SDS_P1;SDS_P2;PMS_P1;PMS_P2;Temp;Humidity;BMP_temperature;BMP_pressure;BME280_temperature;BME280_humidity;BME280_pressure;Samples;Min_cycle;Max_cycle;Signal;HPM_P1;HPM_P2
2021/10/12 00:00:05;;;;;;;3.93;0.60;;;;;;;;;;693818;28;1010;-59
2021/10/12 00:00:25;;;;;;;4.07;0.70;;;;;;;;;;693859;28;967;-59
2021/10/12 00:00:45;;;;;;;3.60;0.52;;;;;;;;;;693857;28;896;-60
2021/10/12 00:01:05;;;;;;;4.77;0.60;;;;;;;;;;693822;28;840;-59
2021/10/12 00:01:25;;;;;;;4.37;0.60;;;;;;;;;;693952;28;954;-58
2021/10/12 00:01:46;;;;;;;3.60;0.70;;;;;;;;;;693893;28;862;-59
2021/10/12 00:02:06;;;;;;;3.50;0.50;;;;;;;;;;693826;28;880;-59
2021/10/12 00:02:26;;;;;;;4.70;0.70;;;;;;;;;;693989;28;916;-59
2021/10/12 00:02:46;;;;;;;4.17;0.60;;;;;;;;;;693458;28;872;-59
2021/10/12 00:03:06;;;;;;;3.53;0.60;;;;;;;;;;693756;28;797;-59
2021/10/12 00:03:27;;;;;;;4.47;0.70;;;;;;;;;;694030;28;805;-59
2021/10/12 00:03:47;;;;;;;4.57;0.60;;;;;;;;;;694044;28;1474;-59
2021/10/12 00:04:07;;;;;;;5.07;0.80;;;;;;;;;;693815;28;1420;-59
2021/10/12 00:04:27;;;;;;;4.00;0.80;;;;;;;;;;693979;28;974;-59
2021/10/12 00:04:47;;;;;;;3.03;0.70;;;;;;;;;;693807;28;864;-60
2021/10/12 00:05:08;;;;;;;3.30;0.68;;;;;;;;;;693769;28;975;-60
2021/10/12 00:05:28;;;;;;;3.73;0.60;;;;;;;;;;693918;28;805;-60
2021/10/12 00:05:48;;;;;;;2.93;0.63;;;;;;;;;;693887;28;917;-58
2021/10/12 00:06:08;;;;;;;2.33;0.60;;;;;;;;;;693908;28;947;-60
2021/10/12 00:06:28;;;;;;;2.53;0.57;;;;;;;;;;693945;28;1045;-60
2021/10/12 00:06:49;;;;;;;2.93;0.63;;;;;;;;;;693768;28;903;-60
2021/10/12 00:07:09;;;;;;;2.90;0.50;;;;;;;;;;693819;28;974;-60
2021/10/12 00:07:29;;;;;;;3.67;0.55;;;;;;;;;;693834;28;845;-59
2021/10/12 00:07:52;;;;;;;4.30;0.67;;;;;;;;;;693961;28;772;-59
2021/10/12 00:08:12;;;;;;;3.10;0.60;;;;;;;;;;693696;28;1355;-59
2021/10/12 00:08:33;;;;;;;3.57;0.70;;;;;;;;;;693840;28;880;-59
2021/10/12 00:08:53;;;;;;;3.72;0.70;;;;;;;;;;693860;28;826;-59
2021/10/12 00:09:13;;;;;;;3.07;0.60;;;;;;;;;;693826;28;814;-59
2021/10/12 00:09:33;;;;;;;4.00;0.60;;;;;;;;;;693809;28;924;-59
2021/10/12 00:09:56;;;;;;;3.00;0.60;;;;;;;;;;693950;28;798;-59
2021/10/12 00:10:16;;;;;;;4.45;0.70;;;;;;;;;;693809;28;1027;-59
2021/10/12 00:10:37;;;;;;;3.50;0.60;;;;;;;;;;693980;28;863;-59
2021/10/12 00:10:57;;;;;;;3.83;0.53;;;;;;;;;;695150;28;1657;-59
2021/10/12 00:11:17;;;;;;;3.87;0.57;;;;;;;;;;696502;28;836;-59
2021/10/12 00:11:40;;;;;;;4.83;0.80;;;;;;;;;;696675;28;884;-59
2021/10/12 00:12:00;;;;;;;4.57;0.77;;;;;;;;;;696745;28;838;-59
2021/10/12 00:12:20;;;;;;;3.67;0.65;;;;;;;;;;696464;28;1639;-59
2021/10/12 00:12:40;;;;;;;4.13;0.80;;;;;;;;;;696409;28;840;-60
2021/10/12 00:13:00;;;;;;;4.17;0.60;;;;;;;;;;696303;28;1033;-60
2021/10/12 00:13:21;;;;;;;4.53;0.70;;;;;;;;;;696607;28;880;-60
2021/10/12 00:13:41;;;;;;;5.23;0.83;;;;;;;;;;696266;28;1902;-59
2021/10/12 00:14:01;;;;;;;5.43;0.70;;;;;;;;;;693968;28;1669;-59
2021/10/12 00:14:21;;;;;;;3.83;0.60;;;;;;;;;;693895;28;796;-59
2021/10/12 00:14:41;;;;;;;3.10;0.60;;;;;;;;;;693982;28;1058;-59
2021/10/12 00:15:02;;;;;;;4.77;0.77;;;;;;;;;;693793;28;917;-59
2021/10/12 00:15:22;;;;;;;5.88;0.68;;;;;;;;;;693897;28;824;-59
2021/10/12 00:15:42;;;;;;;5.07;0.73;;;;;;;;;;693868;28;1015;-59
2021/10/12 00:16:03;;;;;;;6.85;0.80;;;;;;;;;;693980;28;928;-59
2021/10/12 00:16:23;;;;;;;5.20;0.70;;;;;;;;;;693907;28;856;-60
2021/10/12 00:16:43;;;;;;;5.27;0.63;;;;;;;;;;693839;28;1014;-59
2021/10/12 00:17:03;;;;;;;4.27;0.70;;;;;;;;;;693862;28;911;-59
2021/10/12 00:17:23;;;;;;;4.97;0.70;;;;;;;;;;693891;28;938;-60
2021/10/12 00:17:43;;;;;;;3.83;0.67;;;;;;;;;;693779;28;840;-59
2021/10/12 00:18:04;;;;;;;4.17;0.70;;;;;;;;;;693981;28;811;-60
2021/10/12 00:18:24;;;;;;;4.67;0.70;;;;;;;;;;693865;28;998;-59
2021/10/12 00:18:44;;;;;;;3.53;0.70;;;;;;;;;;693937;28;781;-59
2021/10/12 00:19:04;;;;;;;3.57;0.57;;;;;;;;;;693781;28;990;-59
2021/10/12 00:19:24;;;;;;;4.27;0.90;;;;;;;;;;695195;28;1428;-58
2021/10/12 00:19:44;;;;;;;3.97;0.80;;;;;;;;;;696556;28;785;-58
2021/10/12 00:20:05;;;;;;;5.07;1.00;;;;;;;;;;696636;28;978;-59
2021/10/12 00:20:25;;;;;;;4.28;0.70;;;;;;;;;;696478;28;1320;-59
2021/10/12 00:20:45;;;;;;;4.40;0.70;;;;;;;;;;696693;28;896;-59
2021/10/12 00:21:06;;;;;;;6.23;1.00;;;;;;;;;;696536;28;949;-59
2021/10/12 00:21:26;;;;;;;5.43;1.00;;;;;;;;;;696481;28;1050;-59
2021/10/12 00:21:46;;;;;;;4.50;0.83;;;;;;;;;;696603;28;858;-59
2021/10/12 00:22:06;;;;;;;4.47;0.90;;;;;;;;;;696545;28;833;-59
2021/10/12 00:22:27;;;;;;;6.72;0.90;;;;;;;;;;696621;28;804;-59
2021/10/12 00:22:47;;;;;;;3.10;0.67;;;;;;;;;;695832;28;1443;-58
2021/10/12 00:23:07;;;;;;;3.97;0.80;;;;;;;;;;696543;28;935;-59
2021/10/12 00:23:27;;;;;;;5.27;0.70;;;;;;;;;;696622;28;836;-59
2021/10/12 00:23:47;;;;;;;4.43;0.70;;;;;;;;;;695679;28;1479;-59
2021/10/12 00:24:09;;;;;;;4.18;0.85;;;;;;;;;;696587;28;821;-59
2021/10/12 00:24:29;;;;;;;4.05;0.90;;;;;;;;;;696585;28;844;-59
2021/10/12 00:24:49;;;;;;;6.20;0.80;;;;;;;;;;696519;28;864;-59
2021/10/12 00:25:09;;;;;;;5.90;0.85;;;;;;;;;;696545;28;1026;-59
2021/10/12 00:25:29;;;;;;;4.13;1.07;;;;;;;;;;696502;28;915;-59
2021/10/12 00:25:49;;;;;;;3.40;0.77;;;;;;;;;;696441;28;891;-59
2021/10/12 00:26:10;;;;;;;4.27;0.63;;;;;;;;;;696653;28;856;-59
2021/10/12 00:26:30;;;;;;;5.53;0.80;;;;;;;;;;696554;28;777;-59
2021/10/12 00:26:50;;;;;;;5.93;0.90;;;;;;;;;;696527;28;876;-59
2021/10/12 00:27:10;;;;;;;5.13;0.80;;;;;;;;;;696564;28;868;-59
2021/10/12 00:27:30;;;;;;;5.80;0.70;;;;;;;;;;696652;28;781;-59
2021/10/12 00:27:50;;;;;;;4.97;0.90;;;;;;;;;;696416;28;983;-59
2021/10/12 00:28:11;;;;;;;4.70;0.90;;;;;;;;;;696668;28;899;-60
2021/10/12 00:28:31;;;;;;;5.13;1.00;;;;;;;;;;696516;28;966;-59
2021/10/12 00:28:51;;;;;;;4.60;0.87;;;;;;;;;;696545;28;861;-59
2021/10/12 00:29:11;;;;;;;4.90;0.80;;;;;;;;;;696575;28;852;-59
2021/10/12 00:29:32;;;;;;;5.03;0.90;;;;;;;;;;696495;28;935;-59
2021/10/12 00:29:52;;;;;;;4.53;0.90;;;;;;;;;;696614;28;808;-58
2021/10/12 00:30:12;;;;;;;6.40;1.00;;;;;;;;;;696529;28;802;-59
2021/10/12 00:30:32;;;;;;;5.30;0.83;;;;;;;;;;696522;28;899;-59
2021/10/12 00:30:52;;;;;;;5.60;0.75;;;;;;;;;;696590;28;887;-60
2021/10/12 00:31:12;;;;;;;5.80;0.90;;;;;;;;;;696458;28;963;-59
2021/10/12 00:31:33;;;;;;;5.53;1.00;;;;;;;;;;696608;28;867;-59
2021/10/12 00:31:53;;;;;;;5.53;0.97;;;;;;;;;;696538;28;908;-58
2021/10/12 00:32:13;;;;;;;4.23;0.80;;;;;;;;;;696432;28;895;-59
2021/10/12 00:32:33;;;;;;;5.55;0.82;;;;;;;;;;696657;28;943;-59
2021/10/12 00:32:53;;;;;;;5.73;0.90;;;;;;;;;;694285;28;1597;-60
2021/10/12 00:33:14;;;;;;;5.50;1.00;;;;;;;;;;693748;28;915;-59
2021/10/12 00:33:34;;;;;;;4.93;0.80;;;;;;;;;;693835;28;801;-59
2021/10/12 00:33:55;;;;;;;5.00;1.07;;;;;;;;;;694547;28;1970;-59
2021/10/12 00:34:18;;;;;;;4.88;0.98;;;;;;;;;;696396;28;1117;-59
2021/10/12 00:34:38;;;;;;;5.00;0.90;;;;;;;;;;696618;28;961;-59
2021/10/12 00:34:59;;;;;;;5.23;0.90;;;;;;;;;;693899;28;1490;-60
2021/10/12 00:35:19;;;;;;;4.77;0.90;;;;;;;;;;693831;28;936;-58
2021/10/12 00:35:39;;;;;;;4.10;0.80;;;;;;;;;;693885;28;1002;-59
2021/10/12 00:35:59;;;;;;;4.97;0.93;;;;;;;;;;693713;28;896;-59
2021/10/12 00:36:19;;;;;;;5.87;0.97;;;;;;;;;;693758;28;951;-60
2021/10/12 00:36:39;;;;;;;6.40;1.02;;;;;;;;;;693682;28;1459;-59
2021/10/12 00:37:00;;;;;;;7.00;1.10;;;;;;;;;;693409;28;785;-59
2021/10/12 00:37:20;;;;;;;5.20;1.00;;;;;;;;;;693452;28;864;-59
2021/10/12 00:37:40;;;;;;;5.23;1.10;;;;;;;;;;693774;28;912;-59
2021/10/12 00:38:00;;;;;;;4.53;1.00;;;;;;;;;;693794;28;1022;-59
2021/10/12 00:38:22;;;;;;;5.53;0.90;;;;;;;;;;693849;28;822;-59
2021/10/12 00:38:42;;;;;;;5.60;0.98;;;;;;;;;;693727;28;946;-59
2021/10/12 00:39:02;;;;;;;7.27;1.33;;;;;;;;;;693744;28;982;-59
2021/10/12 00:39:23;;;;;;;6.50;1.27;;;;;;;;;;693816;28;810;-59
2021/10/12 00:39:52;;;;;;;5.93;1.03;;;;;;;;;;693776;28;1127;-59
2021/10/12 00:40:12;;;;;;;5.93;1.00;;;;;;;;;;693854;28;871;-59
2021/10/12 00:40:32;;;;;;;5.43;0.93;;;;;;;;;;693664;28;885;-59
2021/10/12 00:40:52;;;;;;;5.80;1.10;;;;;;;;;;694440;28;1475;-60
2021/10/12 00:41:12;;;;;;;6.57;1.13;;;;;;;;;;696503;28;905;-60
2021/10/12 00:41:33;;;;;;;6.60;1.10;;;;;;;;;;696498;28;810;-60
2021/10/12 00:41:53;;;;;;;4.50;1.03;;;;;;;;;;696476;28;1018;-60
2021/10/12 00:42:13;;;;;;;5.40;1.13;;;;;;;;;;696529;28;824;-60
2021/10/12 00:42:33;;;;;;;5.77;1.20;;;;;;;;;;696503;28;979;-60
2021/10/12 00:42:54;;;;;;;6.85;1.10;;;;;;;;;;696035;28;1045;-60
2021/10/12 00:43:14;;;;;;;5.07;1.00;;;;;;;;;;696433;28;903;-59
2021/10/12 00:43:34;;;;;;;4.97;0.80;;;;;;;;;;696608;28;1078;-61
2021/10/12 00:43:54;;;;;;;6.25;1.05;;;;;;;;;;695409;28;1546;-59
2021/10/12 00:44:14;;;;;;;5.63;1.07;;;;;;;;;;693772;28;862;-58
2021/10/12 00:44:35;;;;;;;5.80;1.10;;;;;;;;;;693708;28;1018;-58
2021/10/12 00:44:56;;;;;;;6.78;1.38;;;;;;;;;;693723;28;1219;-59
2021/10/12 00:45:19;;;;;;;7.22;1.20;;;;;;;;;;693765;28;1025;-59
2021/10/12 00:45:41;;;;;;;6.55;1.05;;;;;;;;;;693853;28;810;-59
2021/10/12 00:46:05;;;;;;;6.45;1.13;;;;;;;;;;693620;28;943;-59
2021/10/12 00:46:25;;;;;;;8.27;1.20;;;;;;;;;;693777;28;920;-59
2021/10/12 00:46:45;;;;;;;7.93;1.10;;;;;;;;;;693581;28;841;-60
2021/10/12 00:47:06;;;;;;;5.37;0.90;;;;;;;;;;693707;28;932;-58
2021/10/12 00:47:26;;;;;;;5.70;1.10;;;;;;;;;;693781;28;938;-59
2021/10/12 00:48:03;;;;;;;7.20;1.10;;;;;;;;;;693738;28;898;-59
2021/10/12 00:48:23;;;;;;;8.68;1.20;;;;;;;;;;693687;28;1031;-60
2021/10/12 00:48:43;;;;;;;7.17;1.20;;;;;;;;;;693584;28;984;-58
2021/10/12 00:49:04;;;;;;;6.05;1.05;;;;;;;;;;693701;28;889;-60
2021/10/12 00:49:27;;;;;;;5.63;1.00;;;;;;;;;;695165;28;1433;-58
2021/10/12 00:49:47;;;;;;;5.28;0.88;;;;;;;;;;696498;28;868;-58
2021/10/12 00:50:07;;;;;;;5.10;0.80;;;;;;;;;;696448;28;1148;-59
2021/10/12 00:50:29;;;;;;;5.70;0.90;;;;;;;;;;696387;28;923;-58
2021/10/12 00:50:49;;;;;;;5.63;1.10;;;;;;;;;;695669;28;1533;-59
2021/10/12 00:51:09;;;;;;;5.97;1.00;;;;;;;;;;696430;28;904;-59
2021/10/12 00:51:29;;;;;;;4.27;0.97;;;;;;;;;;696461;28;837;-59
2021/10/12 00:51:49;;;;;;;6.30;1.10;;;;;;;;;;696549;28;809;-60
2021/10/12 00:52:09;;;;;;;5.13;1.00;;;;;;;;;;696584;28;828;-60
2021/10/12 00:52:30;;;;;;;5.10;0.70;;;;;;;;;;696422;28;860;-60
2021/10/12 00:52:52;;;;;;;4.93;0.93;;;;;;;;;;696031;28;931;-60
2021/10/12 00:53:12;;;;;;;5.28;0.82;;;;;;;;;;696346;28;926;-60
2021/10/12 00:53:32;;;;;;;5.40;0.83;;;;;;;;;;696527;28;942;-59
2021/10/12 00:53:52;;;;;;;6.60;1.00;;;;;;;;;;695796;28;1910;-60
2021/10/12 00:54:13;;;;;;;5.90;1.10;;;;;;;;;;693741;28;887;-59
2021/10/12 00:54:33;;;;;;;6.27;1.00;;;;;;;;;;693731;28;1050;-60
2021/10/12 00:54:53;;;;;;;6.90;1.03;;;;;;;;;;693693;28;850;-60
2021/10/12 00:55:13;;;;;;;5.77;1.20;;;;;;;;;;693585;28;1107;-60
2021/10/12 00:55:33;;;;;;;5.67;0.93;;;;;;;;;;693695;28;999;-60
2021/10/12 00:55:54;;;;;;;7.67;1.20;;;;;;;;;;693611;28;1270;-58
2021/10/12 00:56:14;;;;;;;7.00;1.10;;;;;;;;;;693827;28;907;-60
2021/10/12 00:56:35;;;;;;;7.20;1.10;;;;;;;;;;693772;28;801;-59
2021/10/12 00:56:55;;;;;;;5.70;1.00;;;;;;;;;;693726;28;860;-59
2021/10/12 00:57:15;;;;;;;6.47;0.95;;;;;;;;;;693649;28;808;-59
2021/10/12 00:57:36;;;;;;;5.93;1.00;;;;;;;;;;693790;28;987;-59
2021/10/12 00:57:56;;;;;;;4.97;0.87;;;;;;;;;;693601;28;890;-59
2021/10/12 00:58:16;;;;;;;7.18;1.30;;;;;;;;;;693761;28;1534;-60
2021/10/12 00:58:36;;;;;;;5.67;0.83;;;;;;;;;;693532;28;1619;-59
2021/10/12 00:58:57;;;;;;;6.23;0.93;;;;;;;;;;693804;28;947;-60
2021/10/12 00:59:18;;;;;;;5.10;1.10;;;;;;;;;;693592;28;967;-59
2021/10/12 00:59:38;;;;;;;5.93;1.00;;;;;;;;;;693718;28;956;-59
2021/10/12 00:59:58;;;;;;;7.30;1.10;;;;;;;;;;693798;28;978;-59
2021/10/12 01:00:21;;;;;;;7.10;1.13;;;;;;;;;;693793;28;821;-59
2021/10/12 01:00:42;;;;;;;8.20;1.00;;;;;;;;;;693653;28;879;-59
2021/10/12 01:01:02;;;;;;;6.13;1.10;;;;;;;;;;693773;28;797;-59
2021/10/12 01:01:22;;;;;;;5.57;1.00;;;;;;;;;;693516;28;923;-58
2021/10/12 01:01:43;;;;;;;7.10;1.10;;;;;;;;;;693777;28;1002;-59
2021/10/12 01:02:03;;;;;;;6.50;1.20;;;;;;;;;;693715;28;988;-59
2021/10/12 01:02:23;;;;;;;5.20;1.00;;;;;;;;;;693733;28;907;-60
2021/10/12 01:02:43;;;;;;;5.95;1.15;;;;;;;;;;693412;28;1026;-60
2021/10/12 01:03:04;;;;;;;6.63;1.10;;;;;;;;;;693674;28;832;-60
2021/10/12 01:03:24;;;;;;;5.93;1.10;;;;;;;;;;693510;28;983;-59
2021/10/12 01:03:44;;;;;;;4.15;0.90;;;;;;;;;;693694;28;1430;-60
2021/10/12 01:04:05;;;;;;;5.17;1.07;;;;;;;;;;694998;28;1491;-59
2021/10/12 01:04:25;;;;;;;5.82;0.90;;;;;;;;;;696557;28;814;-59
2021/10/12 01:04:46;;;;;;;5.77;1.07;;;;;;;;;;696515;28;895;-60
2021/10/12 01:05:06;;;;;;;4.60;0.93;;;;;;;;;;696468;28;935;-59
2021/10/12 01:05:26;;;;;;;4.20;0.80;;;;;;;;;;696395;28;999;-59
2021/10/12 01:05:47;;;;;;;4.03;0.97;;;;;;;;;;696530;28;796;-59
2021/10/12 01:06:07;;;;;;;5.33;0.97;;;;;;;;;;696376;28;943;-59
2021/10/12 01:06:28;;;;;;;6.20;1.10;;;;;;;;;;696558;28;828;-60
2021/10/12 01:06:48;;;;;;;5.20;1.07;;;;;;;;;;696373;28;1018;-60
2021/10/12 01:07:08;;;;;;;4.37;0.90;;;;;;;;;;696506;28;772;-59
2021/10/12 01:07:28;;;;;;;4.93;0.90;;;;;;;;;;696318;28;1006;-60
2021/10/12 01:07:48;;;;;;;4.77;0.90;;;;;;;;;;695839;28;1409;-59
2021/10/12 01:08:08;;;;;;;5.65;0.90;;;;;;;;;;693765;28;1522;-59
2021/10/12 01:08:29;;;;;;;6.27;1.07;;;;;;;;;;693840;28;841;-59
2021/10/12 01:08:49;;;;;;;4.80;1.00;;;;;;;;;;693650;28;813;-59
2021/10/12 01:09:09;;;;;;;4.90;1.00;;;;;;;;;;693700;28;1006;-59
2021/10/12 01:09:29;;;;;;;4.77;0.80;;;;;;;;;;693661;28;955;-59
2021/10/12 01:09:49;;;;;;;4.53;1.17;;;;;;;;;;693663;28;880;-60
2021/10/12 01:10:10;;;;;;;5.00;1.13;;;;;;;;;;693788;28;828;-59
2021/10/12 01:10:34;;;;;;;5.07;1.00;;;;;;;;;;693672;28;998;-59
2021/10/12 01:10:54;;;;;;;4.25;0.90;;;;;;;;;;693882;28;1570;-59
2021/10/12 01:11:14;;;;;;;5.28;1.00;;;;;;;;;;693733;28;879;-59
2021/10/12 01:11:35;;;;;;;4.97;1.00;;;;;;;;;;693344;28;1419;-60
2021/10/12 01:11:55;;;;;;;5.38;1.00;;;;;;;;;;693743;28;806;-59
2021/10/12 01:12:18;;;;;;;5.50;1.07;;;;;;;;;;693632;28;1034;-59
2021/10/12 01:12:39;;;;;;;4.85;1.10;;;;;;;;;;693523;28;892;-59
2021/10/12 01:13:00;;;;;;;5.33;1.00;;;;;;;;;;693548;28;991;-61
2021/10/12 01:13:20;;;;;;;5.65;0.98;;;;;;;;;;693392;28;1823;-59
2021/10/12 01:13:40;;;;;;;4.37;0.90;;;;;;;;;;693602;28;1973;-59
2021/10/12 01:14:01;;;;;;;4.73;1.00;;;;;;;;;;693788;28;1475;-58
2021/10/12 01:14:21;;;;;;;5.88;1.17;;;;;;;;;;696329;28;987;-59
2021/10/12 01:14:41;;;;;;;7.70;1.20;;;;;;;;;;696500;28;978;-59
2021/10/12 01:15:05;;;;;;;5.73;1.10;;;;;;;;;;696366;28;899;-59
2021/10/12 01:15:25;;;;;;;4.78;1.00;;;;;;;;;;696331;28;1125;-59
2021/10/12 01:15:45;;;;;;;5.15;1.00;;;;;;;;;;696373;28;871;-59
2021/10/12 01:16:05;;;;;;;5.53;1.13;;;;;;;;;;696390;28;848;-59
2021/10/12 01:16:25;;;;;;;4.97;0.93;;;;;;;;;;696436;28;919;-59
2021/10/12 01:16:46;;;;;;;6.43;1.00;;;;;;;;;;696404;28;990;-58
2021/10/12 01:17:06;;;;;;;6.70;1.23;;;;;;;;;;696393;28;978;-59
2021/10/12 01:17:26;;;;;;;5.00;1.10;;;;;;;;;;696447;28;753;-59
2021/10/12 01:17:46;;;;;;;4.93;1.10;;;;;;;;;;696447;28;947;-59
2021/10/12 01:18:10;;;;;;;5.10;1.10;;;;;;;;;;696479;28;820;-58
2021/10/12 01:18:31;;;;;;;4.78;1.10;;;;;;;;;;696516;28;869;-60
2021/10/12 01:18:55;;;;;;;4.88;1.20;;;;;;;;;;696430;28;918;-58
2021/10/12 01:19:16;;;;;;;5.70;1.20;;;;;;;;;;694481;28;1404;-59
2021/10/12 01:19:36;;;;;;;5.65;1.20;;;;;;;;;;693678;28;911;-60
2021/10/12 01:19:57;;;;;;;5.60;1.50;;;;;;;;;;693695;28;844;-60
2021/10/12 01:20:17;;;;;;;5.83;1.17;;;;;;;;;;695512;28;1503;-59
2021/10/12 01:20:38;;;;;;;6.80;1.00;;;;;;;;;;696508;28;856;-60
2021/10/12 01:20:58;;;;;;;6.43;1.23;;;;;;;;;;696512;28;1031;-60
2021/10/12 01:21:18;;;;;;;5.97;1.17;;;;;;;;;;696481;28;1068;-59
2021/10/12 01:21:39;;;;;;;6.53;1.27;;;;;;;;;;696424;28;911;-60
2021/10/12 01:22:01;;;;;;;6.13;1.17;;;;;;;;;;696427;28;978;-60
2021/10/12 01:22:22;;;;;;;5.55;1.20;;;;;;;;;;696411;28;942;-60
2021/10/12 01:22:46;;;;;;;5.47;1.13;;;;;;;;;;696189;28;891;-59
2021/10/12 01:23:06;;;;;;;6.45;1.00;;;;;;;;;;696429;28;910;-59
2021/10/12 01:23:27;;;;;;;6.70;1.10;;;;;;;;;;696405;28;1002;-59
2021/10/12 01:23:47;;;;;;;5.68;1.23;;;;;;;;;;696386;28;1278;-59
2021/10/12 01:24:07;;;;;;;4.90;1.20;;;;;;;;;;695041;28;1518;-59
2021/10/12 01:24:27;;;;;;;5.27;1.20;;;;;;;;;;693779;28;773;-61
2021/10/12 01:24:48;;;;;;;6.75;1.10;;;;;;;;;;693445;28;948;-59
2021/10/12 01:25:08;;;;;;;8.13;1.20;;;;;;;;;;693338;28;976;-59
2021/10/12 01:25:28;;;;;;;5.13;1.00;;;;;;;;;;693409;28;948;-59
2021/10/12 01:25:51;;;;;;;5.67;1.17;;;;;;;;;;693500;28;821;-59
2021/10/12 01:26:11;;;;;;;5.70;1.10;;;;;;;;;;693328;28;907;-58
2021/10/12 01:26:32;;;;;;;5.57;1.00;;;;;;;;;;693573;28;801;-59
2021/10/12 01:26:53;;;;;;;6.10;1.17;;;;;;;;;;693572;28;1914;-58
2021/10/12 01:27:14;;;;;;;6.65;1.27;;;;;;;;;;693719;28;1026;-60
2021/10/12 01:27:34;;;;;;;7.53;1.27;;;;;;;;;;693596;28;1400;-60
2021/10/12 01:27:54;;;;;;;6.45;1.38;;;;;;;;;;693654;28;994;-60
2021/10/12 01:28:18;;;;;;;6.57;1.17;;;;;;;;;;693553;28;915;-59
2021/10/12 01:28:38;;;;;;;7.30;1.10;;;;;;;;;;693677;28;869;-59
2021/10/12 01:28:58;;;;;;;4.82;1.10;;;;;;;;;;693662;28;1042;-60
2021/10/12 01:29:18;;;;;;;6.00;1.20;;;;;;;;;;693633;28;971;-59
2021/10/12 01:29:38;;;;;;;4.97;1.00;;;;;;;;;;693589;28;876;-59
2021/10/12 01:29:58;;;;;;;6.23;1.10;;;;;;;;;;693690;28;1003;-59
2021/10/12 01:30:18;;;;;;;5.53;1.17;;;;;;;;;;693709;28;1530;-58
2021/10/12 01:30:39;;;;;;;4.60;1.00;;;;;;;;;;693517;28;1521;-59
2021/10/12 01:30:59;;;;;;;5.03;0.93;;;;;;;;;;693692;28;957;-58
2021/10/12 01:31:22;;;;;;;4.73;0.97;;;;;;;;;;693656;28;861;-59
2021/10/12 01:31:42;;;;;;;6.78;1.50;;;;;;;;;;693544;28;998;-59
2021/10/12 01:32:03;;;;;;;6.90;1.43;;;;;;;;;;693761;28;845;-59
2021/10/12 01:32:23;;;;;;;5.90;1.03;;;;;;;;;;693575;28;843;-60
2021/10/12 01:32:44;;;;;;;5.00;1.07;;;;;;;;;;693275;28;973;-60
2021/10/12 01:33:05;;;;;;;5.50;1.10;;;;;;;;;;693628;28;839;-60
2021/10/12 01:33:25;;;;;;;5.57;1.00;;;;;;;;;;693432;28;1149;-60
2021/10/12 01:33:46;;;;;;;5.23;1.10;;;;;;;;;;693404;28;1964;-60
2021/10/12 01:34:12;;;;;;;6.13;1.20;;;;;;;;;;694064;28;1630;-59
2021/10/12 01:34:32;;;;;;;5.60;1.13;;;;;;;;;;696262;28;946;-59
2021/10/12 01:34:53;;;;;;;5.37;1.00;;;;;;;;;;696492;28;816;-59
2021/10/12 01:35:14;;;;;;;5.50;1.13;;;;;;;;;;696340;28;845;-59
2021/10/12 01:35:35;;;;;;;7.07;1.23;;;;;;;;;;696362;28;983;-60
2021/10/12 01:35:55;;;;;;;7.32;1.10;;;;;;;;;;695033;28;1427;-58
2021/10/12 01:36:15;;;;;;;4.83;1.03;;;;;;;;;;696016;28;1451;-58
2021/10/12 01:36:35;;;;;;;3.83;1.30;;;;;;;;;;693942;28;1365;-59
2021/10/12 01:36:55;;;;;;;4.47;1.13;;;;;;;;;;693616;28;927;-59
2021/10/12 01:37:16;;;;;;;5.03;1.13;;;;;;;;;;693724;28;820;-59
2021/10/12 01:37:36;;;;;;;4.27;1.00;;;;;;;;;;693623;28;836;-59
2021/10/12 01:37:56;;;;;;;6.00;1.20;;;;;;;;;;693587;28;921;-59
2021/10/12 01:38:17;;;;;;;5.80;1.10;;;;;;;;;;693728;28;851;-59
2021/10/12 01:38:37;;;;;;;5.27;1.40;;;;;;;;;;693701;28;796;-59
2021/10/12 01:38:57;;;;;;;5.10;1.30;;;;;;;;;;693514;28;859;-59
2021/10/12 01:39:18;;;;;;;5.57;1.40;;;;;;;;;;693621;28;963;-59
2021/10/12 01:39:38;;;;;;;5.55;1.30;;;;;;;;;;693364;28;1669;-59
2021/10/12 01:39:58;;;;;;;5.60;1.13;;;;;;;;;;693685;28;1053;-59
2021/10/12 01:40:18;;;;;;;4.27;1.07;;;;;;;;;;693478;28;1249;-61
2021/10/12 01:40:38;;;;;;;5.73;1.20;;;;;;;;;;693596;28;903;-60
2021/10/12 01:40:58;;;;;;;5.00;1.13;;;;;;;;;;693763;28;1424;-59
2021/10/12 01:41:19;;;;;;;6.03;1.30;;;;;;;;;;693723;28;962;-60
2021/10/12 01:41:46;;;;;;;5.78;1.38;;;;;;;;;;693505;28;828;-60
2021/10/12 01:42:06;;;;;;;5.18;1.30;;;;;;;;;;693701;28;954;-58
2021/10/12 01:42:27;;;;;;;4.70;1.20;;;;;;;;;;693643;28;813;-62
2021/10/12 01:42:47;;;;;;;5.67;1.07;;;;;;;;;;693186;28;907;-60
2021/10/12 01:43:07;;;;;;;6.93;1.20;;;;;;;;;;693613;28;848;-60
2021/10/12 01:43:27;;;;;;;4.80;1.27;;;;;;;;;;693362;28;810;-59
2021/10/12 01:43:47;;;;;;;4.33;1.30;;;;;;;;;;693571;28;1340;-59
2021/10/12 01:44:15;;;;;;;5.87;1.30;;;;;;;;;;693922;28;1558;-59
2021/10/12 01:44:35;;;;;;;4.60;1.10;;;;;;;;;;696369;28;939;-60
2021/10/12 01:44:58;;;;;;;6.07;1.30;;;;;;;;;;696369;28;842;-58
2021/10/12 01:45:18;;;;;;;5.97;1.23;;;;;;;;;;696248;28;1015;-59
2021/10/12 01:45:38;;;;;;;6.43;1.40;;;;;;;;;;696337;28;918;-59
2021/10/12 01:45:59;;;;;;;6.03;1.40;;;;;;;;;;696390;28;924;-59
2021/10/12 01:46:19;;;;;;;5.47;1.25;;;;;;;;;;696454;28;868;-62
2021/10/12 01:46:39;;;;;;;5.97;1.30;;;;;;;;;;696359;28;971;-59
2021/10/12 01:46:59;;;;;;;6.33;1.33;;;;;;;;;;696208;28;1164;-59
2021/10/12 01:47:20;;;;;;;5.30;1.30;;;;;;;;;;694569;28;1480;-60
2021/10/12 01:47:41;;;;;;;5.07;1.33;;;;;;;;;;693627;28;839;-59
2021/10/12 01:48:01;;;;;;;4.78;1.40;;;;;;;;;;693476;28;1006;-59
2021/10/12 01:48:21;;;;;;;6.27;1.17;;;;;;;;;;693627;28;832;-59
2021/10/12 01:48:41;;;;;;;5.80;1.30;;;;;;;;;;693549;28;966;-59
2021/10/12 01:49:01;;;;;;;4.97;1.30;;;;;;;;;;693607;28;813;-59
2021/10/12 01:49:22;;;;;;;5.40;1.30;;;;;;;;;;693563;28;937;-59
2021/10/12 01:49:42;;;;;;;5.78;1.30;;;;;;;;;;693495;28;945;-59
2021/10/12 01:50:03;;;;;;;4.00;1.10;;;;;;;;;;693525;28;1015;-59
2021/10/12 01:50:24;;;;;;;4.30;1.30;;;;;;;;;;693694;28;876;-59
2021/10/12 01:50:45;;;;;;;4.60;1.40;;;;;;;;;;693577;28;848;-58
2021/10/12 01:51:05;;;;;;;5.47;1.30;;;;;;;;;;693591;28;871;-59
2021/10/12 01:51:25;;;;;;;5.10;1.30;;;;;;;;;;693448;28;1010;-59
2021/10/12 01:51:46;;;;;;;4.23;1.20;;;;;;;;;;693618;28;963;-59
2021/10/12 01:52:10;;;;;;;4.63;1.27;;;;;;;;;;693643;28;915;-59
2021/10/12 01:52:30;;;;;;;5.03;1.30;;;;;;;;;;693472;28;1015;-59
2021/10/12 01:52:50;;;;;;;3.75;1.20;;;;;;;;;;693880;28;1365;-59
2021/10/12 01:53:10;;;;;;;4.90;1.30;;;;;;;;;;696340;28;873;-60
2021/10/12 01:53:30;;;;;;;5.87;1.40;;;;;;;;;;696171;28;887;-61
2021/10/12 01:53:51;;;;;;;5.50;1.37;;;;;;;;;;696186;28;1985;-59
2021/10/12 01:54:14;;;;;;;5.78;1.45;;;;;;;;;;695432;28;1491;-61
2021/10/12 01:54:34;;;;;;;5.93;1.50;;;;;;;;;;693685;28;840;-60
2021/10/12 01:54:55;;;;;;;6.13;1.42;;;;;;;;;;693653;28;832;-60
2021/10/12 01:55:17;;;;;;;6.37;1.43;;;;;;;;;;693528;28;839;-60
2021/10/12 01:55:37;;;;;;;6.97;1.52;;;;;;;;;;693531;28;931;-59
2021/10/12 01:55:57;;;;;;;6.30;1.40;;;;;;;;;;693549;28;959;-59
2021/10/12 01:56:17;;;;;;;6.43;1.52;;;;;;;;;;693619;28;948;-60
2021/10/12 01:56:38;;;;;;;6.33;1.67;;;;;;;;;;693708;28;789;-60
2021/10/12 01:56:58;;;;;;;6.03;1.60;;;;;;;;;;693567;28;1015;-59
2021/10/12 01:57:18;;;;;;;5.73;1.43;;;;;;;;;;693619;28;911;-59
2021/10/12 01:57:38;;;;;;;6.03;1.55;;;;;;;;;;693489;28;824;-59
2021/10/12 01:57:59;;;;;;;5.53;1.60;;;;;;;;;;693574;28;789;-59
2021/10/12 01:58:19;;;;;;;5.53;1.63;;;;;;;;;;693605;28;970;-60
2021/10/12 01:58:39;;;;;;;5.70;1.57;;;;;;;;;;693673;28;780;-60
2021/10/12 01:58:59;;;;;;;6.20;1.50;;;;;;;;;;693584;28;1002;-59
2021/10/12 01:59:19;;;;;;;6.03;1.40;;;;;;;;;;693665;28;915;-60
2021/10/12 01:59:39;;;;;;;6.37;1.60;;;;;;;;;;693435;28;963;-60
2021/10/12 02:00:00;;;;;;;5.63;1.57;;;;;;;;;;693715;28;884;-59
2021/10/12 02:00:20;;;;;;;5.15;1.40;;;;;;;;;;693610;28;958;-59
2021/10/12 02:00:40;;;;;;;5.37;1.60;;;;;;;;;;693636;28;834;-61
2021/10/12 02:01:00;;;;;;;4.60;1.60;;;;;;;;;;693586;28;1417;-60
2021/10/12 02:01:21;;;;;;;5.33;1.63;;;;;;;;;;693700;28;867;-59
2021/10/12 02:01:42;;;;;;;5.95;1.52;;;;;;;;;;693340;28;974;-59
2021/10/12 02:02:02;;;;;;;6.28;1.70;;;;;;;;;;693714;28;1002;-59
2021/10/12 02:02:22;;;;;;;6.63;1.80;;;;;;;;;;693519;28;836;-60
2021/10/12 02:02:42;;;;;;;6.27;1.70;;;;;;;;;;693376;28;793;-60
2021/10/12 02:03:02;;;;;;;6.53;1.70;;;;;;;;;;693554;28;1031;-60
2021/10/12 02:03:23;;;;;;;4.80;1.60;;;;;;;;;;693442;28;1042;-59
2021/10/12 02:03:43;;;;;;;5.03;1.50;;;;;;;;;;693416;28;1265;-59
2021/10/12 02:04:03;;;;;;;5.90;1.50;;;;;;;;;;693765;28;788;-59
2021/10/12 02:04:26;;;;;;;6.70;1.77;;;;;;;;;;695122;28;1467;-62
2021/10/12 02:04:46;;;;;;;7.85;2.10;;;;;;;;;;696388;28;1089;-62
2021/10/12 02:05:06;;;;;;;6.60;1.80;;;;;;;;;;696375;28;919;-58
2021/10/12 02:05:26;;;;;;;5.43;1.83;;;;;;;;;;696330;28;967;-58
2021/10/12 02:05:47;;;;;;;5.23;1.77;;;;;;;;;;696361;28;1006;-59
2021/10/12 02:06:07;;;;;;;5.00;1.60;;;;;;;;;;696413;28;781;-59
2021/10/12 02:06:27;;;;;;;6.10;1.92;;;;;;;;;;696432;28;966;-59
2021/10/12 02:06:47;;;;;;;6.67;1.90;;;;;;;;;;696393;28;991;-59
2021/10/12 02:07:07;;;;;;;6.67;1.80;;;;;;;;;;696357;28;864;-60
2021/10/12 02:07:27;;;;;;;5.77;1.70;;;;;;;;;;696381;28;895;-60
2021/10/12 02:07:47;;;;;;;6.40;1.87;;;;;;;;;;696357;28;916;-59
2021/10/12 02:08:07;;;;;;;6.57;1.90;;;;;;;;;;696272;28;821;-59
2021/10/12 02:08:28;;;;;;;5.00;1.70;;;;;;;;;;696395;28;915;-59